sensor_id;sensor_type;location;lat;lon;timestamp;P1;durP1;ratioP1;P2;durP2;ratioP2
37641;SDS011;23486;51.956;5.888;2023-02-08T00:01:11;22.75;;;14.25;;
37641;SDS011;23486;51.956;5.888;2023-02-08T00:03:38;25.17;;;13.95;;
37641;SDS011;23486;51.956;5.888;2023-02-08T00:06:04;26.48;;;14.52;;
37641;SDS011;23486;51.956;5.888;2023-02-08T00:08:31;23.55;;;13.27;;
37641;SDS011;23486;51.956;5.888;2023-02-08T00:10:57;21.88;;;12.70;;
37641;SDS011;23486;51.956;5.888;2023-02-08T00:13:23;25.05;;;12.93;;
37641;SDS011;23486;51.956;5.888;2023-02-08T00:15:50;25.35;;;13.93;;
37641;SDS011;23486;51.956;5.888;2023-02-08T00:18:17;23.58;;;12.85;;
37641;SDS011;23486;51.956;5.888;2023-02-08T00:20:44;22.60;;;13.65;;
37641;SDS011;23486;51.956;5.888;2023-02-08T00:23:10;23.30;;;14.48;;
37641;SDS011;23486;51.956;5.888;2023-02-08T00:25:36;26.10;;;13.77;;
37641;SDS011;23486;51.956;5.888;2023-02-08T00:28:03;25.80;;;14.00;;
37641;SDS011;23486;51.956;5.888;2023-02-08T00:30:28;25.80;;;13.13;;
37641;SDS011;23486;51.956;5.888;2023-02-08T00:32:54;24.33;;;12.98;;
37641;SDS011;23486;51.956;5.888;2023-02-08T00:35:20;23.77;;;13.57;;
37641;SDS011;23486;51.956;5.888;2023-02-08T00:37:45;20.50;;;12.07;;
37641;SDS011;23486;51.956;5.888;2023-02-08T00:40:11;23.48;;;13.70;;
37641;SDS011;23486;51.956;5.888;2023-02-08T00:42:36;22.45;;;13.00;;
37641;SDS011;23486;51.956;5.888;2023-02-08T00:45:02;22.90;;;13.75;;
37641;SDS011;23486;51.956;5.888;2023-02-08T00:47:28;24.42;;;13.15;;
37641;SDS011;23486;51.956;5.888;2023-02-08T00:49:54;22.45;;;12.63;;
37641;SDS011;23486;51.956;5.888;2023-02-08T00:52:20;23.10;;;12.60;;
37641;SDS011;23486;51.956;5.888;2023-02-08T00:54:46;25.63;;;13.20;;
37641;SDS011;23486;51.956;5.888;2023-02-08T00:57:12;21.30;;;12.65;;
37641;SDS011;23486;51.956;5.888;2023-02-08T00:59:37;23.63;;;13.48;;
37641;SDS011;23486;51.956;5.888;2023-02-08T01:02:03;22.30;;;13.27;;
37641;SDS011;23486;51.956;5.888;2023-02-08T01:04:29;22.80;;;12.48;;
37641;SDS011;23486;51.956;5.888;2023-02-08T01:06:55;20.80;;;12.70;;
37641;SDS011;23486;51.956;5.888;2023-02-08T01:09:20;24.25;;;13.07;;
37641;SDS011;23486;51.956;5.888;2023-02-08T01:11:46;21.92;;;12.60;;
37641;SDS011;23486;51.956;5.888;2023-02-08T01:14:11;23.02;;;12.95;;
37641;SDS011;23486;51.956;5.888;2023-02-08T01:16:37;21.25;;;11.95;;
37641;SDS011;23486;51.956;5.888;2023-02-08T01:19:03;22.27;;;13.30;;
37641;SDS011;23486;51.956;5.888;2023-02-08T01:21:38;21.70;;;12.23;;
37641;SDS011;23486;51.956;5.888;2023-02-08T01:24:05;23.05;;;12.65;;
37641;SDS011;23486;51.956;5.888;2023-02-08T01:26:31;21.27;;;12.65;;
37641;SDS011;23486;51.956;5.888;2023-02-08T01:28:57;20.63;;;11.63;;
37641;SDS011;23486;51.956;5.888;2023-02-08T01:31:29;20.75;;;12.50;;
37641;SDS011;23486;51.956;5.888;2023-02-08T01:33:57;22.33;;;11.68;;
37641;SDS011;23486;51.956;5.888;2023-02-08T01:36:24;23.58;;;12.75;;
37641;SDS011;23486;51.956;5.888;2023-02-08T01:38:50;21.98;;;12.57;;
37641;SDS011;23486;51.956;5.888;2023-02-08T01:41:18;22.92;;;12.88;;
37641;SDS011;23486;51.956;5.888;2023-02-08T01:46:25;22.83;;;13.13;;
37641;SDS011;23486;51.956;5.888;2023-02-08T01:48:51;23.63;;;13.90;;
37641;SDS011;23486;51.956;5.888;2023-02-08T01:51:20;23.73;;;12.55;;
37641;SDS011;23486;51.956;5.888;2023-02-08T01:53:50;23.63;;;12.70;;
37641;SDS011;23486;51.956;5.888;2023-02-08T01:56:20;24.48;;;13.48;;
37641;SDS011;23486;51.956;5.888;2023-02-08T01:58:51;23.38;;;12.52;;
37641;SDS011;23486;51.956;5.888;2023-02-08T02:01:20;25.25;;;13.07;;
37641;SDS011;23486;51.956;5.888;2023-02-08T02:03:46;23.50;;;13.48;;
37641;SDS011;23486;51.956;5.888;2023-02-08T02:06:14;21.50;;;12.70;;
37641;SDS011;23486;51.956;5.888;2023-02-08T02:08:47;24.77;;;13.55;;
37641;SDS011;23486;51.956;5.888;2023-02-08T02:11:18;22.55;;;13.52;;
37641;SDS011;23486;51.956;5.888;2023-02-08T02:13:44;25.20;;;13.75;;
37641;SDS011;23486;51.956;5.888;2023-02-08T02:16:12;26.83;;;13.93;;
37641;SDS011;23486;51.956;5.888;2023-02-08T02:18:37;22.90;;;13.48;;
37641;SDS011;23486;51.956;5.888;2023-02-08T02:38:15;21.75;;;12.93;;
37641;SDS011;23486;51.956;5.888;2023-02-08T02:44:06;21.17;;;11.77;;
37641;SDS011;23486;51.956;5.888;2023-02-08T02:46:42;21.85;;;12.30;;
37641;SDS011;23486;51.956;5.888;2023-02-08T02:49:18;22.35;;;13.10;;
37641;SDS011;23486;51.956;5.888;2023-02-08T02:52:01;26.00;;;13.55;;
37641;SDS011;23486;51.956;5.888;2023-02-08T02:54:52;23.08;;;12.52;;
37641;SDS011;23486;51.956;5.888;2023-02-08T02:57:26;24.10;;;13.68;;
37641;SDS011;23486;51.956;5.888;2023-02-08T02:59:54;22.52;;;12.50;;
37641;SDS011;23486;51.956;5.888;2023-02-08T03:02:22;25.63;;;14.13;;
37641;SDS011;23486;51.956;5.888;2023-02-08T03:04:51;27.05;;;13.00;;
37641;SDS011;23486;51.956;5.888;2023-02-08T03:10:04;23.85;;;13.48;;
37641;SDS011;23486;51.956;5.888;2023-02-08T03:21:01;25.67;;;13.65;;
37641;SDS011;23486;51.956;5.888;2023-02-08T03:23:56;23.02;;;13.48;;
37641;SDS011;23486;51.956;5.888;2023-02-08T03:26:52;20.75;;;11.73;;
37641;SDS011;23486;51.956;5.888;2023-02-08T03:29:31;21.38;;;12.00;;
37641;SDS011;23486;51.956;5.888;2023-02-08T03:32:09;22.55;;;12.80;;
37641;SDS011;23486;51.956;5.888;2023-02-08T03:39:40;24.48;;;12.90;;
37641;SDS011;23486;51.956;5.888;2023-02-08T03:42:12;24.38;;;13.30;;
37641;SDS011;23486;51.956;5.888;2023-02-08T03:44:46;27.50;;;13.63;;
37641;SDS011;23486;51.956;5.888;2023-02-08T03:47:37;21.42;;;11.82;;
37641;SDS011;23486;51.956;5.888;2023-02-08T03:50:08;27.17;;;14.00;;
37641;SDS011;23486;51.956;5.888;2023-02-08T03:52:36;24.20;;;13.68;;
37641;SDS011;23486;51.956;5.888;2023-02-08T03:55:05;25.50;;;14.55;;
37641;SDS011;23486;51.956;5.888;2023-02-08T03:57:54;25.75;;;14.60;;
37641;SDS011;23486;51.956;5.888;2023-02-08T04:00:35;24.27;;;14.63;;
37641;SDS011;23486;51.956;5.888;2023-02-08T04:03:06;24.95;;;14.45;;
37641;SDS011;23486;51.956;5.888;2023-02-08T04:05:37;21.40;;;12.77;;
37641;SDS011;23486;51.956;5.888;2023-02-08T04:08:03;25.00;;;14.63;;
37641;SDS011;23486;51.956;5.888;2023-02-08T04:10:28;26.77;;;14.68;;
37641;SDS011;23486;51.956;5.888;2023-02-08T04:12:54;27.88;;;16.23;;
37641;SDS011;23486;51.956;5.888;2023-02-08T04:15:20;31.55;;;17.50;;
37641;SDS011;23486;51.956;5.888;2023-02-08T04:17:46;27.23;;;16.27;;
37641;SDS011;23486;51.956;5.888;2023-02-08T04:20:11;26.55;;;14.80;;
37641;SDS011;23486;51.956;5.888;2023-02-08T04:22:37;28.88;;;15.65;;
37641;SDS011;23486;51.956;5.888;2023-02-08T04:25:03;28.30;;;16.02;;
37641;SDS011;23486;51.956;5.888;2023-02-08T04:27:29;23.95;;;14.13;;
37641;SDS011;23486;51.956;5.888;2023-02-08T04:29:55;24.05;;;13.45;;
37641;SDS011;23486;51.956;5.888;2023-02-08T04:32:20;24.23;;;13.30;;
37641;SDS011;23486;51.956;5.888;2023-02-08T04:34:46;19.95;;;12.32;;
37641;SDS011;23486;51.956;5.888;2023-02-08T04:37:11;24.38;;;14.48;;
37641;SDS011;23486;51.956;5.888;2023-02-08T04:39:37;26.05;;;14.48;;
37641;SDS011;23486;51.956;5.888;2023-02-08T04:42:02;26.80;;;15.20;;
37641;SDS011;23486;51.956;5.888;2023-02-08T04:44:28;21.63;;;12.25;;
37641;SDS011;23486;51.956;5.888;2023-02-08T04:46:56;26.27;;;14.50;;
37641;SDS011;23486;51.956;5.888;2023-02-08T04:49:22;27.48;;;14.20;;
37641;SDS011;23486;51.956;5.888;2023-02-08T04:51:48;23.42;;;12.27;;
37641;SDS011;23486;51.956;5.888;2023-02-08T04:54:13;25.30;;;12.77;;
37641;SDS011;23486;51.956;5.888;2023-02-08T04:56:39;22.92;;;12.00;;
37641;SDS011;23486;51.956;5.888;2023-02-08T04:59:05;31.13;;;13.70;;
37641;SDS011;23486;51.956;5.888;2023-02-08T05:01:30;27.67;;;13.80;;
37641;SDS011;23486;51.956;5.888;2023-02-08T05:03:56;27.05;;;12.85;;
37641;SDS011;23486;51.956;5.888;2023-02-08T05:06:21;25.08;;;13.35;;
37641;SDS011;23486;51.956;5.888;2023-02-08T05:08:47;19.73;;;11.32;;
37641;SDS011;23486;51.956;5.888;2023-02-08T05:11:17;24.73;;;12.60;;
37641;SDS011;23486;51.956;5.888;2023-02-08T05:13:44;20.50;;;11.77;;
37641;SDS011;23486;51.956;5.888;2023-02-08T05:16:09;23.10;;;12.00;;
37641;SDS011;23486;51.956;5.888;2023-02-08T05:18:35;27.70;;;13.27;;
37641;SDS011;23486;51.956;5.888;2023-02-08T05:21:00;21.27;;;11.45;;
37641;SDS011;23486;51.956;5.888;2023-02-08T05:23:28;21.65;;;12.27;;
37641;SDS011;23486;51.956;5.888;2023-02-08T05:25:54;25.02;;;13.68;;
37641;SDS011;23486;51.956;5.888;2023-02-08T05:28:19;26.23;;;13.20;;
37641;SDS011;23486;51.956;5.888;2023-02-08T05:30:45;23.02;;;14.27;;
37641;SDS011;23486;51.956;5.888;2023-02-08T05:33:11;24.95;;;13.90;;
37641;SDS011;23486;51.956;5.888;2023-02-08T05:35:37;22.48;;;13.52;;
37641;SDS011;23486;51.956;5.888;2023-02-08T05:38:03;23.10;;;13.45;;
37641;SDS011;23486;51.956;5.888;2023-02-08T05:40:29;28.83;;;14.65;;
37641;SDS011;23486;51.956;5.888;2023-02-08T05:42:55;29.35;;;15.85;;
37641;SDS011;23486;51.956;5.888;2023-02-08T05:45:21;25.52;;;13.85;;
37641;SDS011;23486;51.956;5.888;2023-02-08T05:47:47;27.17;;;14.82;;
37641;SDS011;23486;51.956;5.888;2023-02-08T05:50:12;26.20;;;14.27;;
37641;SDS011;23486;51.956;5.888;2023-02-08T05:52:38;31.20;;;17.30;;
37641;SDS011;23486;51.956;5.888;2023-02-08T05:55:04;26.15;;;15.50;;
37641;SDS011;23486;51.956;5.888;2023-02-08T05:57:30;25.45;;;14.93;;
37641;SDS011;23486;51.956;5.888;2023-02-08T05:59:56;26.30;;;14.02;;
37641;SDS011;23486;51.956;5.888;2023-02-08T06:02:22;28.45;;;13.68;;
37641;SDS011;23486;51.956;5.888;2023-02-08T06:04:47;31.23;;;16.65;;
37641;SDS011;23486;51.956;5.888;2023-02-08T06:07:13;24.38;;;13.75;;
37641;SDS011;23486;51.956;5.888;2023-02-08T06:09:39;24.27;;;13.38;;
37641;SDS011;23486;51.956;5.888;2023-02-08T06:12:04;24.88;;;14.18;;
37641;SDS011;23486;51.956;5.888;2023-02-08T06:14:31;24.55;;;13.93;;
37641;SDS011;23486;51.956;5.888;2023-02-08T06:16:56;27.65;;;15.23;;
37641;SDS011;23486;51.956;5.888;2023-02-08T06:19:22;28.45;;;15.88;;
37641;SDS011;23486;51.956;5.888;2023-02-08T06:21:47;25.00;;;14.80;;
37641;SDS011;23486;51.956;5.888;2023-02-08T06:24:13;30.00;;;16.10;;
37641;SDS011;23486;51.956;5.888;2023-02-08T06:26:40;29.08;;;16.15;;
37641;SDS011;23486;51.956;5.888;2023-02-08T06:29:06;29.85;;;16.02;;
37641;SDS011;23486;51.956;5.888;2023-02-08T06:31:32;31.45;;;15.30;;
37641;SDS011;23486;51.956;5.888;2023-02-08T06:33:59;26.35;;;15.10;;
37641;SDS011;23486;51.956;5.888;2023-02-08T06:36:25;28.17;;;14.73;;
37641;SDS011;23486;51.956;5.888;2023-02-08T06:38:50;24.88;;;14.73;;
37641;SDS011;23486;51.956;5.888;2023-02-08T06:41:16;29.67;;;16.98;;
37641;SDS011;23486;51.956;5.888;2023-02-08T06:43:41;27.17;;;15.93;;
37641;SDS011;23486;51.956;5.888;2023-02-08T06:46:07;27.45;;;15.82;;
37641;SDS011;23486;51.956;5.888;2023-02-08T06:48:33;26.38;;;16.33;;
37641;SDS011;23486;51.956;5.888;2023-02-08T06:50:59;29.73;;;15.95;;
37641;SDS011;23486;51.956;5.888;2023-02-08T06:53:25;27.25;;;15.35;;
37641;SDS011;23486;51.956;5.888;2023-02-08T06:55:51;26.15;;;15.27;;
37641;SDS011;23486;51.956;5.888;2023-02-08T06:58:17;33.50;;;16.15;;
37641;SDS011;23486;51.956;5.888;2023-02-08T07:00:42;30.33;;;17.20;;
37641;SDS011;23486;51.956;5.888;2023-02-08T07:03:12;27.90;;;16.17;;
37641;SDS011;23486;51.956;5.888;2023-02-08T07:05:39;28.02;;;15.93;;
37641;SDS011;23486;51.956;5.888;2023-02-08T07:08:05;26.85;;;15.82;;
37641;SDS011;23486;51.956;5.888;2023-02-08T07:10:32;28.00;;;15.75;;
37641;SDS011;23486;51.956;5.888;2023-02-08T07:12:58;27.80;;;14.88;;
37641;SDS011;23486;51.956;5.888;2023-02-08T07:15:25;30.33;;;14.45;;
37641;SDS011;23486;51.956;5.888;2023-02-08T07:17:51;29.88;;;16.90;;
37641;SDS011;23486;51.956;5.888;2023-02-08T07:20:17;27.90;;;14.50;;
37641;SDS011;23486;51.956;5.888;2023-02-08T07:22:42;29.90;;;17.48;;
37641;SDS011;23486;51.956;5.888;2023-02-08T07:25:08;29.27;;;16.60;;
37641;SDS011;23486;51.956;5.888;2023-02-08T07:27:34;30.95;;;17.15;;
37641;SDS011;23486;51.956;5.888;2023-02-08T07:29:59;27.40;;;15.32;;
37641;SDS011;23486;51.956;5.888;2023-02-08T07:32:25;27.13;;;14.70;;
37641;SDS011;23486;51.956;5.888;2023-02-08T07:34:51;29.13;;;16.23;;
37641;SDS011;23486;51.956;5.888;2023-02-08T07:37:18;25.10;;;14.48;;
37641;SDS011;23486;51.956;5.888;2023-02-08T07:39:44;28.60;;;15.95;;
37641;SDS011;23486;51.956;5.888;2023-02-08T07:42:09;27.88;;;15.35;;
37641;SDS011;23486;51.956;5.888;2023-02-08T07:44:36;32.17;;;16.02;;
37641;SDS011;23486;51.956;5.888;2023-02-08T07:47:03;32.80;;;17.52;;
37641;SDS011;23486;51.956;5.888;2023-02-08T07:49:29;29.40;;;18.10;;
37641;SDS011;23486;51.956;5.888;2023-02-08T07:51:56;31.23;;;16.80;;
37641;SDS011;23486;51.956;5.888;2023-02-08T07:54:27;26.13;;;15.18;;
37641;SDS011;23486;51.956;5.888;2023-02-08T07:56:53;28.15;;;16.45;;
37641;SDS011;23486;51.956;5.888;2023-02-08T07:59:18;26.17;;;15.63;;
37641;SDS011;23486;51.956;5.888;2023-02-08T08:01:44;28.08;;;16.52;;
37641;SDS011;23486;51.956;5.888;2023-02-08T08:04:09;27.15;;;16.00;;
37641;SDS011;23486;51.956;5.888;2023-02-08T08:06:35;28.23;;;15.77;;
37641;SDS011;23486;51.956;5.888;2023-02-08T08:09:01;30.23;;;16.77;;
37641;SDS011;23486;51.956;5.888;2023-02-08T08:11:27;27.02;;;15.10;;
37641;SDS011;23486;51.956;5.888;2023-02-08T08:13:52;25.88;;;15.70;;
37641;SDS011;23486;51.956;5.888;2023-02-08T08:16:18;29.48;;;16.33;;
37641;SDS011;23486;51.956;5.888;2023-02-08T08:18:44;27.08;;;15.57;;
37641;SDS011;23486;51.956;5.888;2023-02-08T08:21:10;26.40;;;15.77;;
37641;SDS011;23486;51.956;5.888;2023-02-08T08:23:36;25.88;;;15.73;;
37641;SDS011;23486;51.956;5.888;2023-02-08T08:26:06;26.13;;;15.60;;
37641;SDS011;23486;51.956;5.888;2023-02-08T08:28:37;24.73;;;14.27;;
37641;SDS011;23486;51.956;5.888;2023-02-08T08:31:07;32.25;;;15.93;;
37641;SDS011;23486;51.956;5.888;2023-02-08T08:33:34;28.65;;;15.10;;
37641;SDS011;23486;51.956;5.888;2023-02-08T08:35:59;27.75;;;16.15;;
37641;SDS011;23486;51.956;5.888;2023-02-08T08:38:25;26.60;;;14.15;;
37641;SDS011;23486;51.956;5.888;2023-02-08T08:40:51;27.83;;;15.02;;
37641;SDS011;23486;51.956;5.888;2023-02-08T08:43:16;24.85;;;13.85;;
37641;SDS011;23486;51.956;5.888;2023-02-08T08:45:42;21.92;;;12.88;;
37641;SDS011;23486;51.956;5.888;2023-02-08T08:48:07;24.63;;;15.48;;
37641;SDS011;23486;51.956;5.888;2023-02-08T08:50:33;26.92;;;14.20;;
37641;SDS011;23486;51.956;5.888;2023-02-08T08:52:59;22.08;;;12.38;;
37641;SDS011;23486;51.956;5.888;2023-02-08T08:55:24;21.77;;;13.30;;
37641;SDS011;23486;51.956;5.888;2023-02-08T08:57:51;23.40;;;13.65;;
37641;SDS011;23486;51.956;5.888;2023-02-08T09:00:17;23.20;;;13.23;;
37641;SDS011;23486;51.956;5.888;2023-02-08T09:02:43;19.95;;;12.57;;
37641;SDS011;23486;51.956;5.888;2023-02-08T09:05:09;24.38;;;12.93;;
37641;SDS011;23486;51.956;5.888;2023-02-08T09:07:34;22.40;;;12.88;;
37641;SDS011;23486;51.956;5.888;2023-02-08T09:10:00;23.83;;;13.05;;
37641;SDS011;23486;51.956;5.888;2023-02-08T09:12:26;20.88;;;12.18;;
37641;SDS011;23486;51.956;5.888;2023-02-08T09:14:51;21.05;;;12.00;;
37641;SDS011;23486;51.956;5.888;2023-02-08T09:17:17;23.25;;;12.80;;
37641;SDS011;23486;51.956;5.888;2023-02-08T09:19:43;21.27;;;12.50;;
37641;SDS011;23486;51.956;5.888;2023-02-08T09:22:09;19.13;;;10.02;;
37641;SDS011;23486;51.956;5.888;2023-02-08T09:24:34;21.90;;;12.20;;
37641;SDS011;23486;51.956;5.888;2023-02-08T09:27:00;18.70;;;10.50;;
37641;SDS011;23486;51.956;5.888;2023-02-08T09:29:26;22.17;;;11.05;;
37641;SDS011;23486;51.956;5.888;2023-02-08T09:31:54;17.42;;;9.32;;
37641;SDS011;23486;51.956;5.888;2023-02-08T09:34:20;18.13;;;10.88;;
37641;SDS011;23486;51.956;5.888;2023-02-08T09:36:45;19.83;;;9.25;;
37641;SDS011;23486;51.956;5.888;2023-02-08T09:39:18;21.42;;;10.00;;
37641;SDS011;23486;51.956;5.888;2023-02-08T09:47:21;19.35;;;10.60;;
37641;SDS011;23486;51.956;5.888;2023-02-08T09:52:38;18.25;;;10.30;;
37641;SDS011;23486;51.956;5.888;2023-02-08T09:58:02;14.15;;;8.30;;
37641;SDS011;23486;51.956;5.888;2023-02-08T10:00:37;16.40;;;8.63;;
37641;SDS011;23486;51.956;5.888;2023-02-08T10:05:38;19.35;;;9.38;;
37641;SDS011;23486;51.956;5.888;2023-02-08T10:08:04;16.75;;;8.50;;
37641;SDS011;23486;51.956;5.888;2023-02-08T10:10:55;14.85;;;9.20;;
37641;SDS011;23486;51.956;5.888;2023-02-08T10:14:25;15.75;;;9.10;;
37641;SDS011;23486;51.956;5.888;2023-02-08T10:35:50;14.88;;;7.70;;
37641;SDS011;23486;51.956;5.888;2023-02-08T10:40:43;16.00;;;8.52;;
37641;SDS011;23486;51.956;5.888;2023-02-08T10:43:16;15.82;;;8.15;;
37641;SDS011;23486;51.956;5.888;2023-02-08T10:49:08;14.02;;;7.68;;
37641;SDS011;23486;51.956;5.888;2023-02-08T10:51:41;13.73;;;7.88;;
37641;SDS011;23486;51.956;5.888;2023-02-08T10:54:13;12.40;;;7.43;;
37641;SDS011;23486;51.956;5.888;2023-02-08T10:56:48;16.35;;;8.35;;
37641;SDS011;23486;51.956;5.888;2023-02-08T10:59:27;14.98;;;7.72;;
37641;SDS011;23486;51.956;5.888;2023-02-08T11:01:57;13.35;;;7.68;;
37641;SDS011;23486;51.956;5.888;2023-02-08T11:04:23;13.90;;;6.95;;
37641;SDS011;23486;51.956;5.888;2023-02-08T11:06:49;12.95;;;7.55;;
37641;SDS011;23486;51.956;5.888;2023-02-08T11:09:21;11.00;;;6.65;;
37641;SDS011;23486;51.956;5.888;2023-02-08T11:11:48;11.93;;;6.78;;
37641;SDS011;23486;51.956;5.888;2023-02-08T11:14:17;12.88;;;7.28;;
37641;SDS011;23486;51.956;5.888;2023-02-08T11:16:50;13.75;;;6.95;;
37641;SDS011;23486;51.956;5.888;2023-02-08T11:19:22;12.88;;;7.40;;
37641;SDS011;23486;51.956;5.888;2023-02-08T11:21:52;11.25;;;5.28;;
37641;SDS011;23486;51.956;5.888;2023-02-08T11:24:22;12.45;;;6.75;;
37641;SDS011;23486;51.956;5.888;2023-02-08T11:27:14;11.23;;;6.30;;
37641;SDS011;23486;51.956;5.888;2023-02-08T11:32:43;9.50;;;5.80;;
37641;SDS011;23486;51.956;5.888;2023-02-08T11:35:12;12.52;;;5.88;;
37641;SDS011;23486;51.956;5.888;2023-02-08T11:37:47;9.73;;;5.93;;
37641;SDS011;23486;51.956;5.888;2023-02-08T11:40:19;11.68;;;6.35;;
37641;SDS011;23486;51.956;5.888;2023-02-08T11:42:56;10.38;;;6.10;;
37641;SDS011;23486;51.956;5.888;2023-02-08T11:45:30;10.20;;;5.18;;
37641;SDS011;23486;51.956;5.888;2023-02-08T11:47:57;7.80;;;4.70;;
37641;SDS011;23486;51.956;5.888;2023-02-08T11:50:32;9.15;;;4.65;;
37641;SDS011;23486;51.956;5.888;2023-02-08T11:53:02;9.45;;;4.50;;
37641;SDS011;23486;51.956;5.888;2023-02-08T11:55:31;8.35;;;5.15;;
37641;SDS011;23486;51.956;5.888;2023-02-08T11:58:02;8.40;;;4.68;;
37641;SDS011;23486;51.956;5.888;2023-02-08T12:00:29;11.27;;;4.70;;
37641;SDS011;23486;51.956;5.888;2023-02-08T12:02:59;9.57;;;5.40;;
37641;SDS011;23486;51.956;5.888;2023-02-08T12:06:16;15.68;;;5.68;;
37641;SDS011;23486;51.956;5.888;2023-02-08T12:08:25;8.10;;;4.68;;
37641;SDS011;23486;51.956;5.888;2023-02-08T12:11:12;9.57;;;4.95;;
37641;SDS011;23486;51.956;5.888;2023-02-08T12:19:41;10.68;;;3.80;;
37641;SDS011;23486;51.956;5.888;2023-02-08T12:22:32;6.45;;;3.70;;
37641;SDS011;23486;51.956;5.888;2023-02-08T12:30:33;8.32;;;3.85;;
37641;SDS011;23486;51.956;5.888;2023-02-08T12:35:59;8.50;;;3.70;;
37641;SDS011;23486;51.956;5.888;2023-02-08T12:39:07;9.60;;;3.85;;
37641;SDS011;23486;51.956;5.888;2023-02-08T12:42:14;7.55;;;3.55;;
37641;SDS011;23486;51.956;5.888;2023-02-08T12:50:30;8.05;;;3.55;;
37641;SDS011;23486;51.956;5.888;2023-02-08T12:56:01;8.15;;;2.65;;
37641;SDS011;23486;51.956;5.888;2023-02-08T12:58:37;7.97;;;3.22;;
37641;SDS011;23486;51.956;5.888;2023-02-08T13:01:19;7.38;;;3.33;;
37641;SDS011;23486;51.956;5.888;2023-02-08T13:03:56;9.77;;;3.75;;
37641;SDS011;23486;51.956;5.888;2023-02-08T13:06:51;7.85;;;3.75;;
37641;SDS011;23486;51.956;5.888;2023-02-08T13:17:18;5.38;;;2.75;;
37641;SDS011;23486;51.956;5.888;2023-02-08T13:20:01;6.13;;;2.83;;
37641;SDS011;23486;51.956;5.888;2023-02-08T13:22:47;6.15;;;3.10;;
37641;SDS011;23486;51.956;5.888;2023-02-08T13:25:15;4.78;;;2.58;;
37641;SDS011;23486;51.956;5.888;2023-02-08T13:27:50;4.80;;;2.10;;
37641;SDS011;23486;51.956;5.888;2023-02-08T13:30:19;5.50;;;2.47;;
37641;SDS011;23486;51.956;5.888;2023-02-08T13:32:46;4.57;;;2.13;;
37641;SDS011;23486;51.956;5.888;2023-02-08T13:35:27;6.20;;;2.28;;
37641;SDS011;23486;51.956;5.888;2023-02-08T13:38:00;5.03;;;2.47;;
37641;SDS011;23486;51.956;5.888;2023-02-08T13:40:31;5.75;;;2.35;;
37641;SDS011;23486;51.956;5.888;2023-02-08T13:45:27;5.50;;;2.72;;
37641;SDS011;23486;51.956;5.888;2023-02-08T13:48:02;4.70;;;1.90;;
37641;SDS011;23486;51.956;5.888;2023-02-08T13:54:04;6.28;;;2.53;;
37641;SDS011;23486;51.956;5.888;2023-02-08T14:01:25;4.97;;;2.00;;
37641;SDS011;23486;51.956;5.888;2023-02-08T14:06:37;4.25;;;1.67;;
37641;SDS011;23486;51.956;5.888;2023-02-08T14:11:53;5.05;;;1.55;;
37641;SDS011;23486;51.956;5.888;2023-02-08T14:14:26;4.70;;;1.55;;
37641;SDS011;23486;51.956;5.888;2023-02-08T14:19:33;6.25;;;1.90;;
37641;SDS011;23486;51.956;5.888;2023-02-08T14:32:36;4.20;;;1.95;;
37641;SDS011;23486;51.956;5.888;2023-02-08T14:40:52;4.85;;;2.38;;
37641;SDS011;23486;51.956;5.888;2023-02-08T14:43:38;5.05;;;2.25;;
37641;SDS011;23486;51.956;5.888;2023-02-08T14:48:50;5.18;;;1.48;;
37641;SDS011;23486;51.956;5.888;2023-02-08T14:51:17;4.80;;;1.67;;
37641;SDS011;23486;51.956;5.888;2023-02-08T14:53:52;5.57;;;1.70;;
37641;SDS011;23486;51.956;5.888;2023-02-08T14:56:27;4.55;;;1.65;;
37641;SDS011;23486;51.956;5.888;2023-02-08T14:58:54;4.28;;;1.85;;
37641;SDS011;23486;51.956;5.888;2023-02-08T15:04:06;4.55;;;1.90;;
37641;SDS011;23486;51.956;5.888;2023-02-08T15:09:02;5.65;;;1.60;;
37641;SDS011;23486;51.956;5.888;2023-02-08T15:11:30;5.65;;;1.83;;
37641;SDS011;23486;51.956;5.888;2023-02-08T15:13:58;4.93;;;2.10;;
37641;SDS011;23486;51.956;5.888;2023-02-08T15:16:28;4.50;;;1.63;;
37641;SDS011;23486;51.956;5.888;2023-02-08T15:18:58;4.90;;;1.88;;
37641;SDS011;23486;51.956;5.888;2023-02-08T15:21:27;4.05;;;1.40;;
37641;SDS011;23486;51.956;5.888;2023-02-08T15:24:00;4.53;;;1.25;;
37641;SDS011;23486;51.956;5.888;2023-02-08T15:26:27;4.28;;;1.30;;
37641;SDS011;23486;51.956;5.888;2023-02-08T15:28:53;5.80;;;1.33;;
37641;SDS011;23486;51.956;5.888;2023-02-08T15:31:20;5.30;;;1.23;;
37641;SDS011;23486;51.956;5.888;2023-02-08T15:33:51;5.93;;;1.60;;
37641;SDS011;23486;51.956;5.888;2023-02-08T15:36:24;3.85;;;1.55;;
37641;SDS011;23486;51.956;5.888;2023-02-08T15:38:58;7.45;;;2.03;;
37641;SDS011;23486;51.956;5.888;2023-02-08T15:41:27;5.20;;;1.40;;
37641;SDS011;23486;51.956;5.888;2023-02-08T15:46:42;5.47;;;1.33;;
37641;SDS011;23486;51.956;5.888;2023-02-08T15:49:13;3.17;;;1.40;;
37641;SDS011;23486;51.956;5.888;2023-02-08T15:51:40;3.67;;;1.25;;
37641;SDS011;23486;51.956;5.888;2023-02-08T15:54:13;4.20;;;1.10;;
37641;SDS011;23486;51.956;5.888;2023-02-08T15:56:53;4.32;;;1.65;;
37641;SDS011;23486;51.956;5.888;2023-02-08T15:59:26;3.38;;;0.80;;
37641;SDS011;23486;51.956;5.888;2023-02-08T16:01:54;4.10;;;1.52;;
37641;SDS011;23486;51.956;5.888;2023-02-08T16:04:22;4.53;;;1.25;;
37641;SDS011;23486;51.956;5.888;2023-02-08T16:06:53;4.88;;;1.60;;
37641;SDS011;23486;51.956;5.888;2023-02-08T16:09:26;3.72;;;1.05;;
37641;SDS011;23486;51.956;5.888;2023-02-08T16:11:57;3.55;;;1.17;;
37641;SDS011;23486;51.956;5.888;2023-02-08T16:14:24;6.72;;;1.45;;
37641;SDS011;23486;51.956;5.888;2023-02-08T16:16:52;3.65;;;1.45;;
37641;SDS011;23486;51.956;5.888;2023-02-08T16:19:21;4.18;;;1.30;;
37641;SDS011;23486;51.956;5.888;2023-02-08T16:21:55;4.25;;;1.55;;
37641;SDS011;23486;51.956;5.888;2023-02-08T16:24:36;6.13;;;1.77;;
37641;SDS011;23486;51.956;5.888;2023-02-08T16:27:06;6.63;;;1.45;;
37641;SDS011;23486;51.956;5.888;2023-02-08T16:29:44;4.15;;;1.55;;
37641;SDS011;23486;51.956;5.888;2023-02-08T16:34:53;5.93;;;1.52;;
37641;SDS011;23486;51.956;5.888;2023-02-08T16:37:32;4.78;;;1.65;;
37641;SDS011;23486;51.956;5.888;2023-02-08T16:40:03;5.68;;;1.40;;
37641;SDS011;23486;51.956;5.888;2023-02-08T16:42:49;5.93;;;1.77;;
37641;SDS011;23486;51.956;5.888;2023-02-08T16:45:16;3.53;;;1.20;;
37641;SDS011;23486;51.956;5.888;2023-02-08T16:47:53;4.55;;;1.73;;
37641;SDS011;23486;51.956;5.888;2023-02-08T16:50:21;4.50;;;1.40;;
37641;SDS011;23486;51.956;5.888;2023-02-08T16:52:49;4.53;;;1.63;;
37641;SDS011;23486;51.956;5.888;2023-02-08T16:55:25;5.80;;;1.73;;
37641;SDS011;23486;51.956;5.888;2023-02-08T16:57:53;4.82;;;1.52;;
37641;SDS011;23486;51.956;5.888;2023-02-08T17:00:22;6.82;;;2.22;;
37641;SDS011;23486;51.956;5.888;2023-02-08T17:02:53;7.22;;;1.63;;
37641;SDS011;23486;51.956;5.888;2023-02-08T17:05:20;5.40;;;1.83;;
37641;SDS011;23486;51.956;5.888;2023-02-08T17:07:48;5.03;;;1.95;;
37641;SDS011;23486;51.956;5.888;2023-02-08T17:10:19;5.72;;;2.00;;
37641;SDS011;23486;51.956;5.888;2023-02-08T17:12:50;4.93;;;1.63;;
37641;SDS011;23486;51.956;5.888;2023-02-08T17:15:16;6.22;;;1.67;;
37641;SDS011;23486;51.956;5.888;2023-02-08T17:17:44;5.25;;;2.13;;
37641;SDS011;23486;51.956;5.888;2023-02-08T17:20:20;5.03;;;1.65;;
37641;SDS011;23486;51.956;5.888;2023-02-08T17:22:48;7.85;;;1.65;;
37641;SDS011;23486;51.956;5.888;2023-02-08T17:25:15;4.63;;;2.30;;